Disclaimer

Please do not use the information listed here in-flight or in-navigation, as they are not provided to us by the airports but are provided by volunteers, so they might be outdated.

Search


Regions


Airport information page

Radio informations:
ZACATECAS TWR - 118.0 MHz

Airport informations:
Latitude: 22° 53' 49.60" N
Longitude: 102° 41' 12.80" W
Elevation: 7141 feet - 2177 meters
Operating hours: Remarks
Operating agency: Civil government, landing fees and diplomatic clearance may be required
Timezone: UTC-6(-5DT) - First Sunday in April to the last Saturday in October
Fuel: Jet A, without icing inhibitor.

100/130 MIL Spec, low lead, aviation gasoline (BLUE)

Runway information:
02/20 - 9843 x 148 feet< - >3000 x 45 meters
08/26 - 3281 x 98 feet< - >1000 x 30 meters

Recent METARs:
MMZC 162242Z 21011KT 10SM BKN200 19/M08 A3019 RMK 8/001
MMZC 162242Z 21011KT 10SM BKN200 19/M08 A3019 RMK 8/001
MMZC 162341Z 21007KT 10SM BKN200 17/M07 A3020 RMK 8/001

Airport on the map: